createdAt,value
2019-03-09T00:01:00.227Z,100616.66
2019-03-09T00:02:09.257Z,100612.73
2019-03-09T00:03:15.929Z,100616.61
2019-03-09T00:04:23.268Z,100620.46
2019-03-09T00:05:29.511Z,100613.91
2019-03-09T00:06:35.958Z,100611.30
2019-03-09T00:07:43.269Z,100610.77
2019-03-09T00:08:48.978Z,100615.94
2019-03-09T00:09:54.760Z,100615.05
2019-03-09T00:11:00.548Z,100611.54
2019-03-09T00:12:06.418Z,100614.62
2019-03-09T00:13:13.696Z,100615.05
2019-03-09T00:14:20.658Z,100613.69
2019-03-09T00:15:26.538Z,100609.32
2019-03-09T00:16:32.278Z,100614.58
2019-03-09T00:17:38.154Z,100612.43
2019-03-09T00:18:45.129Z,100611.52
2019-03-09T00:19:52.269Z,100613.69
2019-03-09T00:21:00.700Z,100615.39
2019-03-09T00:22:09.118Z,100614.09
2019-03-09T00:23:19.158Z,100613.59
2019-03-09T00:24:27.768Z,100617.07
2019-03-09T00:25:37.508Z,100620.56
2019-03-09T00:26:46.949Z,100614.80
2019-03-09T00:27:55.159Z,100613.83
2019-03-09T00:29:03.279Z,100611.56
2019-03-09T00:30:28.579Z,100612.34
2019-03-09T00:31:44.329Z,100614.52
2019-03-09T00:32:50.839Z,100615.83
2019-03-09T00:33:57.913Z,100612.33
2019-03-09T00:35:04.219Z,100616.14
2019-03-09T00:36:11.029Z,100604.84
2019-03-09T00:37:17.182Z,100610.13
2019-03-09T00:38:23.043Z,100605.73
2019-03-09T00:39:28.779Z,100618.39
2019-03-09T00:40:57.000Z,100611.78
2019-03-09T00:42:03.000Z,100613.03
2019-03-09T00:43:10.920Z,100609.50
2019-03-09T00:44:16.979Z,100605.05
2019-03-09T00:45:22.819Z,100610.70
2019-03-09T00:46:28.597Z,100606.30
2019-03-09T00:47:34.307Z,100603.61
2019-03-09T00:48:40.157Z,100604.84
2019-03-09T00:49:47.480Z,100595.21
2019-03-09T00:50:54.449Z,100593.44
2019-03-09T00:52:01.802Z,100595.61
2019-03-09T00:53:09.540Z,100590.38
2019-03-09T00:54:16.800Z,100589.98
2019-03-09T00:55:24.349Z,100585.09
2019-03-09T00:56:32.751Z,100588.20
2019-03-09T00:57:39.399Z,100586.11
2019-03-09T00:58:45.970Z,100584.75
2019-03-09T00:59:57.441Z,100590.40
2019-03-09T01:01:04.230Z,100583.86
2019-03-09T01:02:11.390Z,100573.73
2019-03-09T01:03:19.852Z,100580.27
2019-03-09T01:04:27.119Z,100581.58
2019-03-09T01:05:33.638Z,100582.00
2019-03-09T01:06:39.920Z,100580.22
2019-03-09T01:07:47.151Z,100584.54
2019-03-09T01:08:52.879Z,100586.69
2019-03-09T01:09:59.700Z,100579.65
2019-03-09T01:11:05.505Z,100583.99
2019-03-09T01:12:11.372Z,100584.88
2019-03-09T01:13:17.314Z,100583.10
2019-03-09T01:14:23.198Z,100583.52
2019-03-09T01:15:28.930Z,100583.99
2019-03-09T01:16:34.840Z,100578.29
2019-03-09T01:17:40.738Z,100581.80
2019-03-09T01:18:48.703Z,100583.05
2019-03-09T01:19:55.144Z,100579.10
2019-03-09T01:21:02.310Z,100574.29
2019-03-09T01:22:08.405Z,100578.63
2019-03-09T01:23:14.880Z,100578.63
2019-03-09T01:24:21.321Z,100575.54
2019-03-09T01:25:28.121Z,100573.32
2019-03-09T01:26:35.042Z,100564.58
2019-03-09T01:27:41.864Z,100574.16
2019-03-09T01:28:49.081Z,100566.67
2019-03-09T01:29:56.141Z,100566.73
2019-03-09T01:31:02.629Z,100568.84
2019-03-09T01:32:09.370Z,100561.91
2019-03-09T01:33:16.431Z,100568.51
2019-03-09T01:34:22.971Z,100566.30
2019-03-09T01:35:29.910Z,100565.84
2019-03-09T01:36:36.441Z,100558.94
2019-03-09T01:37:42.441Z,100565.41
2019-03-09T01:38:48.332Z,100564.95
2019-03-09T01:39:54.401Z,100560.66
2019-03-09T01:41:00.139Z,100552.39
2019-03-09T01:42:05.933Z,100552.34
2019-03-09T01:43:11.781Z,100551.84
2019-03-09T01:44:17.541Z,100545.30
2019-03-09T01:45:23.405Z,100546.98
2019-03-09T01:46:29.221Z,100554.34
2019-03-09T01:47:35.219Z,100544.72
2019-03-09T01:48:41.866Z,100541.25
2019-03-09T01:49:48.434Z,100546.90
2019-03-09T01:50:55.040Z,100540.30
2019-03-09T01:52:01.921Z,100538.09
2019-03-09T01:53:08.912Z,100538.86
2019-03-09T01:54:15.892Z,100539.70
2019-03-09T01:55:22.461Z,100541.87
2019-03-09T01:56:29.071Z,100539.68
2019-03-09T01:57:35.673Z,100532.67
2019-03-09T01:58:42.633Z,100535.20
2019-03-09T01:59:49.582Z,100530.83
2019-03-09T02:00:55.950Z,100535.65
2019-03-09T02:02:03.111Z,100538.73
2019-03-09T02:03:10.722Z,100536.59
2019-03-09T02:04:17.572Z,100531.78
2019-03-09T02:05:24.491Z,100533.09
2019-03-09T02:06:30.714Z,100527.02
2019-03-09T02:07:36.765Z,100531.36
2019-03-09T02:08:42.603Z,100529.16
2019-03-09T02:09:48.541Z,100524.83
2019-03-09T02:10:54.392Z,100523.09
2019-03-09T02:12:00.168Z,100518.28
2019-03-09T02:13:06.102Z,100524.87
2019-03-09T02:14:12.012Z,100523.12
2019-03-09T02:15:17.831Z,100521.92
2019-03-09T02:16:25.062Z,100518.02
2019-03-09T02:17:30.992Z,100519.38
2019-03-09T02:18:37.481Z,100518.08
2019-03-09T02:19:44.852Z,100518.49
2019-03-09T02:20:51.482Z,100511.13
2019-03-09T02:21:58.084Z,100518.16
2019-03-09T02:23:04.712Z,100514.70
2019-03-09T02:24:12.372Z,100512.50
2019-03-09T02:25:18.891Z,100515.64
2019-03-09T02:26:25.102Z,100516.97
2019-03-09T02:27:32.752Z,100508.70
2019-03-09T02:28:39.672Z,100511.39
2019-03-09T02:29:45.783Z,100512.34
2019-03-09T02:30:52.413Z,100508.83
2019-03-09T02:31:58.844Z,100510.61
2019-03-09T02:33:06.712Z,100502.29
2019-03-09T02:34:13.613Z,100500.09
2019-03-09T02:35:20.713Z,100498.79
2019-03-09T02:36:27.943Z,100493.66
2019-03-09T02:37:33.945Z,100500.22
2019-03-09T02:38:41.378Z,100506.41
2019-03-09T02:39:51.304Z,100493.33
2019-03-09T02:40:57.253Z,100495.52
2019-03-09T02:42:03.066Z,100496.34
2019-03-09T02:43:08.841Z,100487.61
2019-03-09T02:44:14.678Z,100490.70
2019-03-09T02:45:27.188Z,100481.48
2019-03-09T02:46:34.154Z,100485.83
2019-03-09T02:47:39.944Z,100481.96
2019-03-09T02:48:46.482Z,100481.48
2019-03-09T02:49:53.474Z,100477.62
2019-03-09T02:51:01.472Z,100484.11
2019-03-09T02:52:08.483Z,100477.15
2019-03-09T02:53:15.484Z,100479.34
2019-03-09T02:54:23.523Z,100464.48
2019-03-09T02:55:30.124Z,100470.66
2019-03-09T02:56:37.555Z,100472.88
2019-03-09T02:57:44.052Z,100472.09
2019-03-09T02:58:50.447Z,100468.16
2019-03-09T02:59:57.094Z,100471.69
2019-03-09T03:01:11.843Z,100467.77
2019-03-09T03:02:26.644Z,100461.63
2019-03-09T03:03:34.921Z,100459.86
2019-03-09T03:04:41.504Z,100461.63
2019-03-09T03:05:48.395Z,100459.86
2019-03-09T03:06:55.135Z,100463.37
2019-03-09T03:08:03.125Z,100456.81
2019-03-09T03:09:08.959Z,100456.34
2019-03-09T03:10:17.864Z,100452.78
2019-03-09T03:11:23.745Z,100457.58
2019-03-09T03:12:29.586Z,100452.78
2019-03-09T03:13:35.344Z,100455.92
2019-03-09T03:14:41.120Z,100452.89
2019-03-09T03:15:46.918Z,100447.13
2019-03-09T03:16:52.874Z,100454.14
2019-03-09T03:18:00.396Z,100450.22
2019-03-09T03:19:07.604Z,100448.09
2019-03-09T03:20:15.564Z,100452.47
2019-03-09T03:21:22.612Z,100460.31
2019-03-09T03:22:29.449Z,100455.45
2019-03-09T03:23:37.205Z,100448.49
2019-03-09T03:24:44.002Z,100450.16
2019-03-09T03:25:51.406Z,100443.63
2019-03-09T03:26:58.274Z,100441.43
2019-03-09T03:28:05.086Z,100441.90
2019-03-09T03:29:11.926Z,100438.86
2019-03-09T03:30:19.096Z,100439.28
2019-03-09T03:31:26.340Z,100436.20
2019-03-09T03:32:35.140Z,100434.45
2019-03-09T03:33:42.020Z,100429.66
2019-03-09T03:34:48.887Z,100426.61
2019-03-09T03:35:54.906Z,100427.49
2019-03-09T03:37:01.379Z,100425.78
2019-03-09T03:38:07.461Z,100426.20
2019-03-09T03:39:13.307Z,100427.04
2019-03-09T03:40:19.065Z,100417.47
2019-03-09T03:41:24.840Z,100417.45
2019-03-09T03:42:30.694Z,100413.47
2019-03-09T03:43:36.576Z,100416.14
2019-03-09T03:44:45.502Z,100408.29
2019-03-09T03:45:51.356Z,100405.63
2019-03-09T03:46:58.401Z,100402.64
2019-03-09T03:48:04.276Z,100392.55
2019-03-09T03:49:11.254Z,100392.55
2019-03-09T03:50:17.837Z,100391.28
2019-03-09T03:51:25.166Z,100404.78
2019-03-09T03:52:32.085Z,100395.11
2019-03-09T03:53:59.377Z,100391.19
2019-03-09T03:55:09.086Z,100389.87
2019-03-09T03:56:16.154Z,100394.25
2019-03-09T03:57:23.406Z,100386.41
2019-03-09T03:58:30.479Z,100385.09
2019-03-09T03:59:38.837Z,100381.19
2019-03-09T04:00:45.777Z,100376.84
2019-03-09T04:01:51.955Z,100379.09
2019-03-09T04:02:58.247Z,100380.89
2019-03-09T04:04:05.085Z,100383.55
2019-03-09T04:05:11.866Z,100387.49
2019-03-09T04:06:18.824Z,100378.34
2019-03-09T04:07:26.398Z,100378.80
2019-03-09T04:08:32.220Z,100377.97
2019-03-09T04:09:38.021Z,100374.05
2019-03-09T04:10:43.967Z,100369.72
2019-03-09T04:11:49.838Z,100372.75
2019-03-09T04:12:57.107Z,100364.41
2019-03-09T04:14:02.992Z,100358.34
2019-03-09T04:15:08.796Z,100362.69
2019-03-09T04:16:14.692Z,100361.38
2019-03-09T04:17:22.196Z,100362.27
2019-03-09T04:18:29.497Z,100365.72
2019-03-09T04:19:35.809Z,100354.79
2019-03-09T04:20:42.428Z,100357.45
2019-03-09T04:21:49.327Z,100353.05
2019-03-09T04:22:56.598Z,100349.61
2019-03-09T04:24:05.869Z,100349.19
2019-03-09T04:25:13.526Z,100344.86
2019-03-09T04:26:20.600Z,100342.66
2019-03-09T04:27:29.318Z,100334.86
2019-03-09T04:28:37.846Z,100336.17
2019-03-09T04:29:44.428Z,100334.02
2019-03-09T04:30:51.078Z,100335.33
2019-03-09T04:31:58.431Z,100331.87
2019-03-09T04:33:05.918Z,100334.44
2019-03-09T04:34:12.324Z,100328.78
2019-03-09T04:35:18.895Z,100324.86
2019-03-09T04:36:25.927Z,100328.78
2019-03-09T04:37:32.087Z,100330.47
2019-03-09T04:38:37.888Z,100330.03
2019-03-09T04:39:43.860Z,100329.58
2019-03-09T04:40:49.627Z,100327.41
2019-03-09T04:41:55.688Z,100320.83
2019-03-09T04:43:01.514Z,100316.85
2019-03-09T04:44:07.347Z,100319.09
2019-03-09T04:45:14.047Z,100319.11
2019-03-09T04:46:19.857Z,100313.02
2019-03-09T04:47:25.637Z,100307.43
2019-03-09T04:48:31.516Z,100316.23
2019-03-09T04:49:40.237Z,100308.86
2019-03-09T04:50:47.018Z,100309.38
2019-03-09T04:51:53.885Z,100306.82
2019-03-09T04:53:02.109Z,100303.00
2019-03-09T04:54:10.138Z,100303.47
2019-03-09T04:55:16.927Z,100304.41
2019-03-09T04:56:24.518Z,100297.97
2019-03-09T04:57:30.997Z,100289.71
2019-03-09T04:58:38.146Z,100289.75
2019-03-09T04:59:45.488Z,100283.68
2019-03-09T05:00:52.046Z,100279.34
2019-03-09T05:01:58.940Z,100279.38
2019-03-09T05:03:05.692Z,100270.69
2019-03-09T05:04:28.970Z,100275.52
2019-03-09T05:05:35.808Z,100264.62
2019-03-09T05:06:42.717Z,100270.38
2019-03-09T05:07:56.211Z,100270.89
2019-03-09T05:09:15.679Z,100270.05
2019-03-09T05:10:37.617Z,100263.08
2019-03-09T05:11:43.349Z,100266.63
2019-03-09T05:12:59.718Z,100264.08
2019-03-09T05:14:05.476Z,100262.81
2019-03-09T05:15:14.548Z,100260.70
2019-03-09T05:16:20.369Z,100263.75
2019-03-09T05:17:26.237Z,100254.58
2019-03-09T05:18:33.666Z,100255.94
2019-03-09T05:19:40.759Z,100259.45
2019-03-09T05:20:48.218Z,100252.56
2019-03-09T05:21:54.746Z,100254.81
2019-03-09T05:23:00.838Z,100253.97
2019-03-09T05:24:09.448Z,100255.70
2019-03-09T05:25:16.240Z,100248.73
2019-03-09T05:26:23.389Z,100250.46
2019-03-09T05:27:31.449Z,100243.91
2019-03-09T05:28:37.700Z,100248.77
2019-03-09T05:29:44.216Z,100246.63
2019-03-09T05:30:51.186Z,100242.27
2019-03-09T05:31:57.709Z,100237.08
2019-03-09T05:33:05.196Z,100239.36
2019-03-09T05:34:12.759Z,100231.59
2019-03-09T05:35:19.699Z,100236.87
2019-03-09T05:36:26.406Z,100235.66
2019-03-09T05:37:32.267Z,100230.03
2019-03-09T05:38:38.099Z,100236.20
2019-03-09T05:39:44.639Z,100230.16
2019-03-09T05:41:11.509Z,100230.24
2019-03-09T05:42:17.288Z,100222.00
2019-03-09T05:43:23.129Z,100219.50
2019-03-09T05:44:29.019Z,100215.22
2019-03-09T05:45:34.954Z,100217.00
2019-03-09T05:46:41.158Z,100214.03
2019-03-09T05:47:46.971Z,100223.24
2019-03-09T05:48:53.849Z,100216.69
2019-03-09T05:50:00.775Z,100205.81
2019-03-09T05:51:07.455Z,100208.94
2019-03-09T05:52:27.349Z,100204.62
2019-03-09T05:53:33.709Z,100205.11
2019-03-09T05:54:42.524Z,100198.17
2019-03-09T05:55:49.100Z,100201.68
2019-03-09T05:56:55.922Z,100198.17
2019-03-09T05:58:02.329Z,100199.55
2019-03-09T05:59:09.957Z,100198.31
2019-03-09T06:00:17.179Z,100201.36
2019-03-09T06:01:24.009Z,100199.63
2019-03-09T06:02:31.409Z,100196.22
2019-03-09T06:03:54.480Z,100193.20
2019-03-09T06:05:36.079Z,100198.45
2019-03-09T06:06:43.050Z,100187.99
2019-03-09T06:07:50.559Z,100192.78
2019-03-09T06:08:56.629Z,100186.68
2019-03-09T06:10:02.390Z,100183.20
2019-03-09T06:11:08.298Z,100180.58
2019-03-09T06:12:14.220Z,100186.75
2019-03-09T06:13:20.380Z,100178.88
2019-03-09T06:14:26.279Z,100177.14
2019-03-09T06:15:32.270Z,100181.96
2019-03-09T06:16:39.044Z,100174.94
2019-03-09T06:17:44.909Z,100178.03
2019-03-09T06:18:51.440Z,100173.20
2019-03-09T06:20:17.769Z,100175.83
2019-03-09T06:21:44.229Z,100170.13
2019-03-09T06:23:01.471Z,100176.22
2019-03-09T06:24:23.264Z,100170.55
2019-03-09T06:25:42.000Z,100164.02
2019-03-09T06:26:55.262Z,100161.39
2019-03-09T06:28:11.750Z,100153.95
2019-03-09T06:29:20.941Z,100149.16
2019-03-09T06:30:28.221Z,100143.48
2019-03-09T06:31:36.109Z,100145.65
2019-03-09T06:33:06.551Z,100140.86
2019-03-09T06:34:17.297Z,100139.16
2019-03-09T06:35:28.671Z,100133.02
2019-03-09T06:36:44.131Z,100125.57
2019-03-09T06:38:16.883Z,100125.14
2019-03-09T06:39:22.710Z,100123.41
2019-03-09T06:40:28.562Z,100118.22
2019-03-09T06:41:51.138Z,100112.97
2019-03-09T06:42:57.272Z,100113.00
2019-03-09T06:44:03.246Z,100107.33
2019-03-09T06:45:12.219Z,100106.07
2019-03-09T06:46:19.262Z,100093.38
2019-03-09T06:47:25.072Z,100100.88
2019-03-09T06:48:33.612Z,100096.11
2019-03-09T06:49:42.465Z,100084.41
2019-03-09T06:50:48.941Z,100087.11
2019-03-09T06:51:55.201Z,100080.62
2019-03-09T06:53:02.983Z,100069.75
2019-03-09T06:54:10.521Z,100065.02
2019-03-09T06:55:19.811Z,100065.14
2019-03-09T06:56:26.503Z,100052.89
2019-03-09T06:57:33.951Z,100051.20
2019-03-09T06:58:41.112Z,100054.70
2019-03-09T06:59:47.641Z,100049.03
2019-03-09T07:00:56.292Z,100048.20
2019-03-09T07:02:02.500Z,100044.70
2019-03-09T07:03:11.101Z,100039.06
2019-03-09T07:04:17.652Z,100040.84
2019-03-09T07:05:24.491Z,100037.80
2019-03-09T07:06:31.242Z,100039.58
2019-03-09T07:07:38.363Z,100040.91
2019-03-09T07:08:45.853Z,100045.33
2019-03-09T07:09:51.667Z,100045.36
2019-03-09T07:10:57.472Z,100043.63
2019-03-09T07:12:03.286Z,100035.73
2019-03-09T07:13:09.283Z,100030.05
2019-03-09T07:14:55.595Z,100031.39
2019-03-09T07:16:02.625Z,100018.27
2019-03-09T07:17:08.753Z,100026.59
2019-03-09T07:18:17.423Z,100019.61
2019-03-09T07:19:24.012Z,100020.91
2019-03-09T07:20:31.234Z,100013.94
2019-03-09T07:21:38.404Z,100003.91
2019-03-09T07:22:46.792Z,100002.20
2019-03-09T07:23:54.526Z,100003.10
2019-03-09T07:25:01.405Z,99997.02
2019-03-09T07:26:09.315Z,99997.49
2019-03-09T07:27:17.103Z,99995.80
2019-03-09T07:28:24.242Z,99987.05
2019-03-09T07:29:31.215Z,99980.93
2019-03-09T07:30:38.052Z,99978.29
2019-03-09T07:31:45.733Z,99984.45
2019-03-09T07:32:52.354Z,99971.72
2019-03-09T07:34:25.385Z,99973.92
2019-03-09T07:35:32.302Z,99969.97
2019-03-09T07:36:39.542Z,99969.08
2019-03-09T07:37:45.332Z,99959.89
2019-03-09T07:38:51.332Z,99963.39
2019-03-09T07:39:57.114Z,99960.75
2019-03-09T07:41:03.198Z,99953.30
2019-03-09T07:42:10.351Z,99959.43
2019-03-09T07:43:16.282Z,99954.19
2019-03-09T07:44:22.143Z,99948.48
2019-03-09T07:45:27.933Z,99944.08
2019-03-09T07:46:35.318Z,99945.84
2019-03-09T07:47:41.191Z,99940.59
2019-03-09T07:48:48.301Z,99934.42
2019-03-09T07:49:56.572Z,99933.56
2019-03-09T07:51:03.662Z,99934.45
2019-03-09T07:52:35.854Z,99931.36
2019-03-09T07:53:42.802Z,99923.88
2019-03-09T07:54:52.179Z,99926.98
2019-03-09T07:55:59.566Z,99925.66
2019-03-09T07:57:05.943Z,99915.98
2019-03-09T07:58:12.431Z,99923.00
2019-03-09T07:59:20.724Z,99912.03
2019-03-09T08:00:28.215Z,99907.65
2019-03-09T08:01:39.503Z,99904.57
2019-03-09T08:02:46.214Z,99901.08
2019-03-09T08:03:56.043Z,99905.45
2019-03-09T08:05:02.433Z,99907.64
2019-03-09T08:06:09.325Z,99897.98
2019-03-09T08:07:15.060Z,99890.98
2019-03-09T08:08:20.873Z,99890.54
2019-03-09T08:09:28.124Z,99883.05
2019-03-09T08:10:34.028Z,99881.73
2019-03-09T08:11:40.027Z,99874.72
2019-03-09T08:12:45.871Z,99878.66
2019-03-09T08:13:51.872Z,99884.83
2019-03-09T08:14:57.754Z,99872.95
2019-03-09T08:16:03.655Z,99872.05
2019-03-09T08:17:09.585Z,99866.33
2019-03-09T08:18:15.475Z,99867.62
2019-03-09T08:19:22.184Z,99866.72
2019-03-09T08:20:29.468Z,99857.48
2019-03-09T08:21:36.854Z,99842.52
2019-03-09T08:22:43.724Z,99851.73
2019-03-09T08:23:51.152Z,99844.67
2019-03-09T08:24:57.816Z,99845.05
2019-03-09T08:26:05.306Z,99842.37
2019-03-09T08:27:12.242Z,99837.92
2019-03-09T08:28:19.286Z,99831.75
2019-03-09T08:29:26.832Z,99844.95
2019-03-09T08:30:34.328Z,99825.53
2019-03-09T08:31:41.614Z,99826.80
2019-03-09T08:32:51.748Z,99826.72
2019-03-09T08:33:59.548Z,99820.93
2019-03-09T08:35:09.622Z,99821.27
2019-03-09T08:36:16.225Z,99805.38
2019-03-09T08:37:23.925Z,99809.34
2019-03-09T08:38:30.164Z,99813.34
2019-03-09T08:39:35.959Z,99803.28
2019-03-09T08:40:43.574Z,99799.39
2019-03-09T08:41:49.651Z,99802.00
2019-03-09T08:42:55.674Z,99804.20
2019-03-09T08:44:01.571Z,99807.75
2019-03-09T08:45:12.443Z,99801.19
2019-03-09T08:46:18.724Z,99805.59
2019-03-09T08:47:35.955Z,99793.80
2019-03-09T08:48:42.895Z,99807.50
2019-03-09T08:49:49.863Z,99782.89
2019-03-09T08:50:56.985Z,99801.83
2019-03-09T08:52:03.375Z,99784.70
2019-03-09T08:53:09.754Z,99783.41
2019-03-09T08:54:16.554Z,99784.73
2019-03-09T08:55:23.465Z,99781.21
2019-03-09T08:56:30.494Z,99779.02
2019-03-09T08:57:38.282Z,99765.35
2019-03-09T08:58:45.192Z,99753.01
2019-03-09T08:59:52.578Z,99748.58
2019-03-09T09:01:00.155Z,99751.66
2019-03-09T09:02:08.897Z,99753.80
2019-03-09T09:03:16.256Z,99752.81
2019-03-09T09:04:24.706Z,99744.78
2019-03-09T09:05:33.696Z,99743.38
2019-03-09T09:06:41.535Z,99741.58
2019-03-09T09:07:47.777Z,99738.49
2019-03-09T09:08:53.618Z,99732.69
2019-03-09T09:10:01.084Z,99735.68
2019-03-09T09:11:07.055Z,99735.11
2019-03-09T09:12:13.626Z,99735.90
2019-03-09T09:13:19.718Z,99720.42
2019-03-09T09:14:28.138Z,99727.48
2019-03-09T09:15:38.430Z,99718.22
2019-03-09T09:16:46.476Z,99714.25
2019-03-09T09:17:52.439Z,99715.09
2019-03-09T09:18:59.146Z,99719.49
2019-03-09T09:20:10.337Z,99713.81
2019-03-09T09:21:17.336Z,99712.10
2019-03-09T09:22:23.685Z,99706.38
2019-03-09T09:23:32.186Z,99708.14
2019-03-09T09:24:39.426Z,99704.70
2019-03-09T09:25:47.076Z,99709.08
2019-03-09T09:26:54.796Z,99695.46
2019-03-09T09:28:02.708Z,99706.97
2019-03-09T09:29:09.700Z,99705.30
2019-03-09T09:30:32.379Z,99701.38
2019-03-09T09:31:39.356Z,99694.43
2019-03-09T09:32:46.951Z,99694.47
2019-03-09T09:33:53.596Z,99697.59
2019-03-09T09:35:00.539Z,99686.16
2019-03-09T09:36:10.510Z,99689.72
2019-03-09T09:37:17.882Z,99691.95
2019-03-09T09:38:23.879Z,99694.23
2019-03-09T09:39:30.005Z,99687.76
2019-03-09T09:40:35.913Z,99687.43
2019-03-09T09:41:42.016Z,99707.27
2019-03-09T09:42:48.404Z,99693.73
2019-03-09T09:43:54.668Z,99685.44
2019-03-09T09:45:02.290Z,99687.23
2019-03-09T09:46:09.597Z,99692.97
2019-03-09T09:47:15.447Z,99695.25
2019-03-09T09:48:22.288Z,99685.66
2019-03-09T09:49:28.556Z,99680.87
2019-03-09T09:50:36.040Z,99676.51
2019-03-09T09:51:42.628Z,99672.58
2019-03-09T09:52:50.199Z,99676.99
2019-03-09T09:53:57.417Z,99670.42
2019-03-09T09:55:05.056Z,99672.18
2019-03-09T09:56:12.591Z,99669.58
2019-03-09T09:57:19.677Z,99670.06
2019-03-09T09:58:27.137Z,99666.55
2019-03-09T09:59:34.651Z,99670.97
2019-03-09T10:00:42.578Z,99660.86
2019-03-09T10:01:48.907Z,99659.57
2019-03-09T10:02:55.657Z,99660.45
2019-03-09T10:04:02.278Z,99649.93
2019-03-09T10:05:12.308Z,99656.98
2019-03-09T10:06:20.754Z,99656.55
2019-03-09T10:07:26.794Z,99654.79
2019-03-09T10:08:33.398Z,99656.11
2019-03-09T10:09:39.248Z,99651.73
2019-03-09T10:10:45.069Z,99646.91
2019-03-09T10:11:50.865Z,99645.56
2019-03-09T10:12:56.648Z,99636.78
2019-03-09T10:14:02.540Z,99639.86
2019-03-09T10:15:13.381Z,99639.42
2019-03-09T10:16:19.249Z,99632.81
2019-03-09T10:17:25.069Z,99629.75
2019-03-09T10:18:31.919Z,99632.38
2019-03-09T10:19:38.968Z,99626.24
2019-03-09T10:20:46.003Z,99634.59
2019-03-09T10:21:54.506Z,99623.16
2019-03-09T10:23:04.486Z,99636.77
2019-03-09T10:24:10.547Z,99631.97
2019-03-09T10:25:17.763Z,99621.45
2019-03-09T10:26:26.543Z,99625.84
2019-03-09T10:27:34.048Z,99631.16
2019-03-09T10:28:40.571Z,99620.64
2019-03-09T10:29:47.898Z,99628.09
2019-03-09T10:30:55.517Z,99621.55
2019-03-09T10:32:01.932Z,99613.63
2019-03-09T10:33:09.888Z,99617.16
2019-03-09T10:34:15.884Z,99612.79
2019-03-09T10:35:22.828Z,99621.14
2019-03-09T10:36:29.708Z,99624.66
2019-03-09T10:37:35.618Z,99620.70
2019-03-09T10:38:42.039Z,99615.90
2019-03-09T10:39:47.919Z,99630.36
2019-03-09T10:40:53.919Z,99620.73
2019-03-09T10:41:59.729Z,99629.08
2019-03-09T10:43:05.746Z,99628.64
2019-03-09T10:44:11.675Z,99628.63
2019-03-09T10:45:22.239Z,99628.21
2019-03-09T10:46:28.358Z,99624.25
2019-03-09T10:47:35.410Z,99621.64
2019-03-09T10:48:41.689Z,99621.66
2019-03-09T10:49:48.816Z,99619.02
2019-03-09T10:50:55.550Z,99624.28
2019-03-09T10:52:04.052Z,99621.20
2019-03-09T10:53:10.907Z,99623.86
2019-03-09T10:54:17.566Z,99615.06
2019-03-09T10:55:33.209Z,99620.33
2019-03-09T10:56:40.746Z,99605.00
2019-03-09T10:57:47.679Z,99605.43
2019-03-09T10:58:54.139Z,99611.16
2019-03-09T11:00:01.501Z,99611.58
2019-03-09T11:01:09.716Z,99602.80
2019-03-09T11:02:16.624Z,99608.96
2019-03-09T11:03:23.140Z,99610.70
2019-03-09T11:04:30.556Z,99606.75
2019-03-09T11:05:38.467Z,99603.69
2019-03-09T11:06:45.359Z,99615.09
2019-03-09T11:07:54.456Z,99602.36
2019-03-09T11:09:00.488Z,99605.44
2019-03-09T11:10:11.030Z,99594.05
2019-03-09T11:11:17.108Z,99597.98
2019-03-09T11:12:22.990Z,99587.89
2019-03-09T11:13:28.729Z,99589.67
2019-03-09T11:14:34.487Z,99581.32
2019-03-09T11:15:40.360Z,99580.01
2019-03-09T11:16:46.220Z,99586.59
2019-03-09T11:17:52.032Z,99579.59
2019-03-09T11:19:00.080Z,99579.16
2019-03-09T11:20:11.633Z,99584.86
2019-03-09T11:21:18.158Z,99580.05
2019-03-09T11:22:25.261Z,99573.02
2019-03-09T11:23:34.348Z,99573.89
2019-03-09T11:24:40.947Z,99566.03
2019-03-09T11:25:47.680Z,99567.32
2019-03-09T11:26:54.360Z,99576.55
2019-03-09T11:28:15.111Z,99562.52
2019-03-09T11:29:21.861Z,99566.01
2019-03-09T11:30:30.470Z,99570.41
2019-03-09T11:31:37.501Z,99566.03
2019-03-09T11:32:44.628Z,99569.53
2019-03-09T11:33:50.940Z,99563.41
2019-03-09T11:34:58.390Z,99562.09
2019-03-09T11:36:06.470Z,99566.87
2019-03-09T11:37:13.442Z,99563.41
2019-03-09T11:38:19.274Z,99564.70
2019-03-09T11:39:25.040Z,99560.75
2019-03-09T11:40:32.667Z,99560.75
2019-03-09T11:41:38.578Z,99556.35
2019-03-09T11:42:44.453Z,99560.75
2019-03-09T11:43:50.641Z,99567.32
2019-03-09T11:44:57.783Z,99553.26
2019-03-09T11:46:08.221Z,99544.06
2019-03-09T11:47:17.461Z,99550.59
2019-03-09T11:48:24.352Z,99547.08
2019-03-09T11:49:33.206Z,99549.28
2019-03-09T11:50:40.575Z,99555.42
2019-03-09T11:51:48.207Z,99547.94
2019-03-09T11:52:57.509Z,99551.89
2019-03-09T11:54:05.928Z,99551.45
2019-03-09T11:55:15.288Z,99552.76
2019-03-09T11:56:22.495Z,99554.95
2019-03-09T11:57:29.410Z,99560.23
2019-03-09T11:58:38.267Z,99562.00
2019-03-09T11:59:45.234Z,99559.36
2019-03-09T12:00:52.153Z,99561.54
2019-03-09T12:01:59.358Z,99552.30
2019-03-09T12:03:08.067Z,99550.05
2019-03-09T12:04:17.495Z,99551.76
2019-03-09T12:05:25.187Z,99545.58
2019-03-09T12:06:32.377Z,99551.67
2019-03-09T12:07:39.535Z,99558.67
2019-03-09T12:08:46.522Z,99564.80
2019-03-09T12:09:53.479Z,99559.98
2019-03-09T12:11:00.820Z,99557.78
2019-03-09T12:12:07.875Z,99559.98
2019-03-09T12:13:15.993Z,99559.95
2019-03-09T12:14:23.256Z,99554.25
2019-03-09T12:15:30.439Z,99551.17
2019-03-09T12:16:39.176Z,99551.63
2019-03-09T12:17:47.694Z,99559.95
2019-03-09T12:18:55.397Z,99551.55
2019-03-09T12:20:02.565Z,99552.84
2019-03-09T12:21:09.935Z,99545.80
2019-03-09T12:22:17.295Z,99538.71
2019-03-09T12:23:26.381Z,99536.05
2019-03-09T12:24:33.694Z,99538.59
2019-03-09T12:25:41.323Z,99539.80
2019-03-09T12:26:50.218Z,99539.30
2019-03-09T12:27:57.247Z,99541.81
2019-03-09T12:29:04.920Z,99538.14
2019-03-09T12:30:21.563Z,99528.83
2019-03-09T12:31:28.380Z,99522.17
2019-03-09T12:32:36.899Z,99522.58
2019-03-09T12:33:44.929Z,99532.69
2019-03-09T12:34:52.311Z,99528.25
2019-03-09T12:35:59.442Z,99537.92
2019-03-09T12:37:06.129Z,99535.72
2019-03-09T12:38:13.321Z,99534.30
2019-03-09T12:39:20.093Z,99532.05
2019-03-09T12:40:28.034Z,99526.82
2019-03-09T12:41:36.671Z,99527.74
2019-03-09T12:42:44.391Z,99513.23
2019-03-09T12:43:52.361Z,99516.81
2019-03-09T12:45:00.972Z,99513.39
2019-03-09T12:46:10.452Z,99525.34
2019-03-09T12:47:19.041Z,99533.30
2019-03-09T12:48:25.800Z,99522.36
2019-03-09T12:49:34.842Z,99513.61
2019-03-09T12:50:42.273Z,99550.65
2019-03-09T12:51:49.858Z,99548.96
2019-03-09T12:52:56.927Z,99562.22
2019-03-09T12:54:24.950Z,99557.82
2019-03-09T12:55:33.865Z,99541.97
2019-03-09T12:56:41.480Z,99541.09
2019-03-09T12:57:50.659Z,99538.86
2019-03-09T12:58:57.932Z,99550.72
2019-03-09T13:00:05.286Z,99532.67
2019-03-09T13:01:12.666Z,99524.34
2019-03-09T13:02:21.705Z,99517.28
2019-03-09T13:03:28.422Z,99529.98